sensor_id;sensor_type;location;lat;lon;timestamp;P1;durP1;ratioP1;P2;durP2;ratioP2
11334;SDS011;5722;42.620;23.374;2024-01-30T00:00:35;8.17;;;5.83;;
11334;SDS011;5722;42.620;23.374;2024-01-30T00:03:03;8.13;;;6.30;;
11334;SDS011;5722;42.620;23.374;2024-01-30T00:05:32;9.73;;;6.37;;
11334;SDS011;5722;42.620;23.374;2024-01-30T00:08:00;7.67;;;5.70;;
11334;SDS011;5722;42.620;23.374;2024-01-30T00:10:35;7.60;;;5.57;;
11334;SDS011;5722;42.620;23.374;2024-01-30T00:13:04;8.53;;;5.57;;
11334;SDS011;5722;42.620;23.374;2024-01-30T00:15:40;7.83;;;5.37;;
11334;SDS011;5722;42.620;23.374;2024-01-30T00:18:08;6.00;;;5.23;;
11334;SDS011;5722;42.620;23.374;2024-01-30T00:20:38;6.83;;;5.67;;
11334;SDS011;5722;42.620;23.374;2024-01-30T00:23:05;8.93;;;5.40;;
11334;SDS011;5722;42.620;23.374;2024-01-30T00:25:36;7.97;;;5.07;;
11334;SDS011;5722;42.620;23.374;2024-01-30T00:28:06;5.83;;;5.03;;
11334;SDS011;5722;42.620;23.374;2024-01-30T00:30:40;8.97;;;5.53;;
11334;SDS011;5722;42.620;23.374;2024-01-30T00:33:09;7.23;;;5.30;;
11334;SDS011;5722;42.620;23.374;2024-01-30T00:35:39;6.90;;;5.03;;
11334;SDS011;5722;42.620;23.374;2024-01-30T00:38:10;7.40;;;5.30;;
11334;SDS011;5722;42.620;23.374;2024-01-30T00:40:40;8.13;;;5.13;;
11334;SDS011;5722;42.620;23.374;2024-01-30T00:43:15;7.83;;;5.13;;
11334;SDS011;5722;42.620;23.374;2024-01-30T00:45:48;9.93;;;5.10;;
11334;SDS011;5722;42.620;23.374;2024-01-30T00:48:21;9.33;;;5.47;;
11334;SDS011;5722;42.620;23.374;2024-01-30T00:50:57;9.90;;;6.03;;
11334;SDS011;5722;42.620;23.374;2024-01-30T00:53:25;7.03;;;4.93;;
11334;SDS011;5722;42.620;23.374;2024-01-30T00:55:55;6.83;;;5.00;;
11334;SDS011;5722;42.620;23.374;2024-01-30T00:58:24;9.37;;;5.77;;
11334;SDS011;5722;42.620;23.374;2024-01-30T01:00:53;8.77;;;5.63;;
11334;SDS011;5722;42.620;23.374;2024-01-30T01:03:21;9.90;;;6.23;;
11334;SDS011;5722;42.620;23.374;2024-01-30T01:05:53;7.77;;;5.57;;
11334;SDS011;5722;42.620;23.374;2024-01-30T01:08:23;7.27;;;5.47;;
11334;SDS011;5722;42.620;23.374;2024-01-30T01:10:52;8.87;;;5.07;;
11334;SDS011;5722;42.620;23.374;2024-01-30T01:13:24;7.57;;;4.97;;
11334;SDS011;5722;42.620;23.374;2024-01-30T01:15:56;6.50;;;4.60;;
11334;SDS011;5722;42.620;23.374;2024-01-30T01:18:26;6.70;;;4.87;;
11334;SDS011;5722;42.620;23.374;2024-01-30T01:20:54;7.70;;;5.07;;
11334;SDS011;5722;42.620;23.374;2024-01-30T01:23:21;7.20;;;4.87;;
11334;SDS011;5722;42.620;23.374;2024-01-30T01:25:51;6.60;;;4.93;;
11334;SDS011;5722;42.620;23.374;2024-01-30T01:28:35;9.00;;;5.13;;
11334;SDS011;5722;42.620;23.374;2024-01-30T01:31:17;8.00;;;4.87;;
11334;SDS011;5722;42.620;23.374;2024-01-30T01:33:52;6.80;;;4.93;;
11334;SDS011;5722;42.620;23.374;2024-01-30T01:36:20;6.63;;;4.77;;
11334;SDS011;5722;42.620;23.374;2024-01-30T01:38:49;6.53;;;4.90;;
11334;SDS011;5722;42.620;23.374;2024-01-30T01:41:29;6.47;;;4.87;;
11334;SDS011;5722;42.620;23.374;2024-01-30T01:44:02;6.90;;;5.30;;
11334;SDS011;5722;42.620;23.374;2024-01-30T01:46:42;6.17;;;4.70;;
11334;SDS011;5722;42.620;23.374;2024-01-30T01:49:11;6.87;;;4.80;;
11334;SDS011;5722;42.620;23.374;2024-01-30T01:51:49;7.43;;;4.80;;
11334;SDS011;5722;42.620;23.374;2024-01-30T01:54:34;7.10;;;5.20;;
11334;SDS011;5722;42.620;23.374;2024-01-30T01:57:07;5.87;;;4.43;;
11334;SDS011;5722;42.620;23.374;2024-01-30T01:59:37;6.33;;;4.10;;
11334;SDS011;5722;42.620;23.374;2024-01-30T02:02:14;5.63;;;4.60;;
11334;SDS011;5722;42.620;23.374;2024-01-30T02:04:52;6.07;;;4.20;;
11334;SDS011;5722;42.620;23.374;2024-01-30T02:11:05;6.80;;;4.67;;
11334;SDS011;5722;42.620;23.374;2024-01-30T02:14:09;7.53;;;5.20;;
11334;SDS011;5722;42.620;23.374;2024-01-30T02:20:38;8.73;;;4.40;;
11334;SDS011;5722;42.620;23.374;2024-01-30T02:26:14;6.60;;;4.53;;
11334;SDS011;5722;42.620;23.374;2024-01-30T02:28:43;6.63;;;4.60;;
11334;SDS011;5722;42.620;23.374;2024-01-30T02:31:15;5.53;;;4.13;;
11334;SDS011;5722;42.620;23.374;2024-01-30T02:33:43;5.93;;;4.30;;
11334;SDS011;5722;42.620;23.374;2024-01-30T02:36:15;5.30;;;3.93;;
11334;SDS011;5722;42.620;23.374;2024-01-30T02:38:44;6.33;;;4.40;;
11334;SDS011;5722;42.620;23.374;2024-01-30T02:41:22;5.30;;;4.10;;
11334;SDS011;5722;42.620;23.374;2024-01-30T02:43:49;5.70;;;4.00;;
11334;SDS011;5722;42.620;23.374;2024-01-30T02:46:19;5.63;;;4.23;;
11334;SDS011;5722;42.620;23.374;2024-01-30T02:48:47;6.17;;;4.53;;
11334;SDS011;5722;42.620;23.374;2024-01-30T02:51:15;6.83;;;5.20;;
11334;SDS011;5722;42.620;23.374;2024-01-30T02:53:44;5.70;;;4.37;;
11334;SDS011;5722;42.620;23.374;2024-01-30T02:56:12;6.30;;;4.17;;
11334;SDS011;5722;42.620;23.374;2024-01-30T02:58:51;5.80;;;4.17;;
11334;SDS011;5722;42.620;23.374;2024-01-30T03:01:22;6.07;;;4.50;;
11334;SDS011;5722;42.620;23.374;2024-01-30T03:03:51;5.17;;;3.90;;
11334;SDS011;5722;42.620;23.374;2024-01-30T03:06:18;5.60;;;4.20;;
11334;SDS011;5722;42.620;23.374;2024-01-30T03:08:48;5.80;;;4.17;;
11334;SDS011;5722;42.620;23.374;2024-01-30T03:11:20;5.60;;;4.23;;
11334;SDS011;5722;42.620;23.374;2024-01-30T03:13:49;5.20;;;3.97;;
11334;SDS011;5722;42.620;23.374;2024-01-30T03:16:17;5.97;;;4.03;;
11334;SDS011;5722;42.620;23.374;2024-01-30T03:18:46;4.80;;;4.30;;
11334;SDS011;5722;42.620;23.374;2024-01-30T03:21:14;6.20;;;4.20;;
11334;SDS011;5722;42.620;23.374;2024-01-30T03:23:43;6.17;;;4.60;;
11334;SDS011;5722;42.620;23.374;2024-01-30T03:26:19;6.37;;;4.23;;
11334;SDS011;5722;42.620;23.374;2024-01-30T03:28:54;5.30;;;3.97;;
11334;SDS011;5722;42.620;23.374;2024-01-30T03:31:22;5.37;;;4.00;;
11334;SDS011;5722;42.620;23.374;2024-01-30T03:33:50;5.00;;;3.97;;
11334;SDS011;5722;42.620;23.374;2024-01-30T03:36:23;5.53;;;4.30;;
11334;SDS011;5722;42.620;23.374;2024-01-30T03:38:55;5.60;;;4.40;;
11334;SDS011;5722;42.620;23.374;2024-01-30T03:47:01;6.23;;;4.10;;
11334;SDS011;5722;42.620;23.374;2024-01-30T03:49:29;5.00;;;3.90;;
11334;SDS011;5722;42.620;23.374;2024-01-30T03:52:03;4.67;;;3.60;;
11334;SDS011;5722;42.620;23.374;2024-01-30T03:54:40;5.50;;;3.83;;
11334;SDS011;5722;42.620;23.374;2024-01-30T03:57:11;4.80;;;3.77;;
11334;SDS011;5722;42.620;23.374;2024-01-30T03:59:43;3.60;;;3.27;;
11334;SDS011;5722;42.620;23.374;2024-01-30T04:02:17;3.93;;;3.13;;
11334;SDS011;5722;42.620;23.374;2024-01-30T04:05:06;4.53;;;3.50;;
11334;SDS011;5722;42.620;23.374;2024-01-30T04:07:37;4.73;;;3.60;;
11334;SDS011;5722;42.620;23.374;2024-01-30T04:12:39;5.37;;;4.00;;
11334;SDS011;5722;42.620;23.374;2024-01-30T04:15:12;8.57;;;5.23;;
11334;SDS011;5722;42.620;23.374;2024-01-30T04:17:43;15.63;;;7.63;;
11334;SDS011;5722;42.620;23.374;2024-01-30T04:20:13;15.83;;;7.63;;
11334;SDS011;5722;42.620;23.374;2024-01-30T04:22:43;12.33;;;6.50;;
11334;SDS011;5722;42.620;23.374;2024-01-30T04:25:11;9.90;;;5.73;;
11334;SDS011;5722;42.620;23.374;2024-01-30T04:27:42;12.13;;;7.33;;
11334;SDS011;5722;42.620;23.374;2024-01-30T04:30:20;12.60;;;7.37;;
11334;SDS011;5722;42.620;23.374;2024-01-30T04:33:11;12.70;;;7.23;;
11334;SDS011;5722;42.620;23.374;2024-01-30T04:35:49;10.10;;;5.60;;
11334;SDS011;5722;42.620;23.374;2024-01-30T04:38:19;6.50;;;4.13;;
11334;SDS011;5722;42.620;23.374;2024-01-30T04:40:47;6.73;;;4.10;;
11334;SDS011;5722;42.620;23.374;2024-01-30T04:43:20;5.23;;;3.10;;
11334;SDS011;5722;42.620;23.374;2024-01-30T04:45:59;7.43;;;4.30;;
11334;SDS011;5722;42.620;23.374;2024-01-30T04:48:33;3.97;;;3.27;;
11334;SDS011;5722;42.620;23.374;2024-01-30T04:51:00;4.43;;;2.90;;
11334;SDS011;5722;42.620;23.374;2024-01-30T04:53:40;4.23;;;2.70;;
11334;SDS011;5722;42.620;23.374;2024-01-30T04:56:11;6.07;;;3.07;;
11334;SDS011;5722;42.620;23.374;2024-01-30T04:58:51;4.73;;;3.40;;
11334;SDS011;5722;42.620;23.374;2024-01-30T05:01:21;4.93;;;3.50;;
11334;SDS011;5722;42.620;23.374;2024-01-30T05:03:52;4.50;;;3.13;;
11334;SDS011;5722;42.620;23.374;2024-01-30T05:06:25;3.83;;;2.80;;
11334;SDS011;5722;42.620;23.374;2024-01-30T05:08:59;6.63;;;3.03;;
11334;SDS011;5722;42.620;23.374;2024-01-30T05:11:36;7.90;;;3.80;;
11334;SDS011;5722;42.620;23.374;2024-01-30T05:14:07;5.80;;;3.23;;
11334;SDS011;5722;42.620;23.374;2024-01-30T05:16:56;11.37;;;3.17;;
11334;SDS011;5722;42.620;23.374;2024-01-30T05:19:30;5.73;;;3.33;;
11334;SDS011;5722;42.620;23.374;2024-01-30T05:22:11;7.73;;;3.67;;
11334;SDS011;5722;42.620;23.374;2024-01-30T05:24:46;5.40;;;3.60;;
11334;SDS011;5722;42.620;23.374;2024-01-30T05:27:17;7.93;;;4.37;;
11334;SDS011;5722;42.620;23.374;2024-01-30T05:29:56;8.33;;;5.03;;
11334;SDS011;5722;42.620;23.374;2024-01-30T05:32:32;8.40;;;5.13;;
11334;SDS011;5722;42.620;23.374;2024-01-30T05:35:03;7.03;;;4.77;;
11334;SDS011;5722;42.620;23.374;2024-01-30T05:37:39;24.23;;;12.20;;
11334;SDS011;5722;42.620;23.374;2024-01-30T05:40:11;32.80;;;13.83;;
11334;SDS011;5722;42.620;23.374;2024-01-30T05:42:49;23.27;;;10.60;;
11334;SDS011;5722;42.620;23.374;2024-01-30T05:45:21;28.17;;;13.77;;
11334;SDS011;5722;42.620;23.374;2024-01-30T05:47:56;15.33;;;8.10;;
11334;SDS011;5722;42.620;23.374;2024-01-30T05:50:24;16.63;;;8.33;;
11334;SDS011;5722;42.620;23.374;2024-01-30T05:53:11;11.53;;;6.47;;
11334;SDS011;5722;42.620;23.374;2024-01-30T05:58:40;15.10;;;7.37;;
11334;SDS011;5722;42.620;23.374;2024-01-30T06:01:12;12.63;;;6.13;;
11334;SDS011;5722;42.620;23.374;2024-01-30T06:03:53;9.80;;;5.57;;
11334;SDS011;5722;42.620;23.374;2024-01-30T06:06:26;10.43;;;5.77;;
11334;SDS011;5722;42.620;23.374;2024-01-30T06:08:55;13.87;;;6.27;;
11334;SDS011;5722;42.620;23.374;2024-01-30T06:11:29;10.60;;;5.60;;
11334;SDS011;5722;42.620;23.374;2024-01-30T06:14:03;18.90;;;6.93;;
11334;SDS011;5722;42.620;23.374;2024-01-30T06:16:37;14.60;;;6.53;;
11334;SDS011;5722;42.620;23.374;2024-01-30T06:19:07;9.90;;;5.53;;
11334;SDS011;5722;42.620;23.374;2024-01-30T06:21:35;9.83;;;5.57;;
11334;SDS011;5722;42.620;23.374;2024-01-30T06:24:03;14.10;;;7.07;;
11334;SDS011;5722;42.620;23.374;2024-01-30T06:26:33;11.20;;;6.50;;
11334;SDS011;5722;42.620;23.374;2024-01-30T06:29:02;11.17;;;4.30;;
11334;SDS011;5722;42.620;23.374;2024-01-30T06:31:32;13.90;;;3.97;;
11334;SDS011;5722;42.620;23.374;2024-01-30T06:33:59;7.87;;;3.80;;
11334;SDS011;5722;42.620;23.374;2024-01-30T06:36:28;5.67;;;4.17;;
11334;SDS011;5722;42.620;23.374;2024-01-30T06:38:55;6.67;;;4.30;;
11334;SDS011;5722;42.620;23.374;2024-01-30T06:41:22;4.57;;;3.13;;
11334;SDS011;5722;42.620;23.374;2024-01-30T06:43:50;4.63;;;2.97;;
11334;SDS011;5722;42.620;23.374;2024-01-30T06:46:19;5.83;;;4.10;;
11334;SDS011;5722;42.620;23.374;2024-01-30T06:48:50;7.83;;;3.30;;
11334;SDS011;5722;42.620;23.374;2024-01-30T06:51:18;16.33;;;2.97;;
11334;SDS011;5722;42.620;23.374;2024-01-30T06:53:49;3.63;;;2.97;;
11334;SDS011;5722;42.620;23.374;2024-01-30T06:56:16;4.57;;;3.30;;
11334;SDS011;5722;42.620;23.374;2024-01-30T06:58:46;24.37;;;3.87;;
11334;SDS011;5722;42.620;23.374;2024-01-30T07:01:14;5.73;;;2.60;;
11334;SDS011;5722;42.620;23.374;2024-01-30T07:03:41;5.40;;;2.67;;
11334;SDS011;5722;42.620;23.374;2024-01-30T07:06:08;3.97;;;2.93;;
11334;SDS011;5722;42.620;23.374;2024-01-30T07:08:39;9.20;;;3.60;;
11334;SDS011;5722;42.620;23.374;2024-01-30T07:11:07;4.63;;;3.43;;
11334;SDS011;5722;42.620;23.374;2024-01-30T07:13:39;3.07;;;2.27;;
11334;SDS011;5722;42.620;23.374;2024-01-30T07:16:08;2.83;;;2.17;;
11334;SDS011;5722;42.620;23.374;2024-01-30T07:18:39;5.13;;;2.87;;
11334;SDS011;5722;42.620;23.374;2024-01-30T07:21:06;3.77;;;2.97;;
11334;SDS011;5722;42.620;23.374;2024-01-30T07:23:33;4.57;;;3.10;;
11334;SDS011;5722;42.620;23.374;2024-01-30T07:26:01;2.90;;;2.30;;
11334;SDS011;5722;42.620;23.374;2024-01-30T07:28:33;3.57;;;2.97;;
11334;SDS011;5722;42.620;23.374;2024-01-30T07:31:00;2.83;;;2.50;;
11334;SDS011;5722;42.620;23.374;2024-01-30T07:33:28;3.20;;;2.43;;
11334;SDS011;5722;42.620;23.374;2024-01-30T07:36:09;3.33;;;2.53;;
11334;SDS011;5722;42.620;23.374;2024-01-30T07:38:37;4.30;;;2.37;;
11334;SDS011;5722;42.620;23.374;2024-01-30T07:41:08;2.97;;;2.17;;
11334;SDS011;5722;42.620;23.374;2024-01-30T07:43:37;6.17;;;2.17;;
11334;SDS011;5722;42.620;23.374;2024-01-30T07:46:04;4.13;;;3.30;;
11334;SDS011;5722;42.620;23.374;2024-01-30T07:48:35;2.43;;;2.13;;
11334;SDS011;5722;42.620;23.374;2024-01-30T07:51:02;4.23;;;3.17;;
11334;SDS011;5722;42.620;23.374;2024-01-30T07:53:30;47.57;;;6.87;;
11334;SDS011;5722;42.620;23.374;2024-01-30T07:55:57;33.73;;;3.40;;
11334;SDS011;5722;42.620;23.374;2024-01-30T07:58:28;6.47;;;2.77;;
11334;SDS011;5722;42.620;23.374;2024-01-30T08:00:58;3.63;;;2.80;;
11334;SDS011;5722;42.620;23.374;2024-01-30T08:03:28;5.13;;;3.00;;
11334;SDS011;5722;42.620;23.374;2024-01-30T08:05:59;5.63;;;3.77;;
11334;SDS011;5722;42.620;23.374;2024-01-30T08:08:27;10.67;;;4.00;;
11334;SDS011;5722;42.620;23.374;2024-01-30T08:10:54;4.67;;;3.33;;
11334;SDS011;5722;42.620;23.374;2024-01-30T08:13:25;5.23;;;3.27;;
11334;SDS011;5722;42.620;23.374;2024-01-30T08:16:01;4.30;;;3.20;;
11334;SDS011;5722;42.620;23.374;2024-01-30T08:18:29;4.77;;;3.80;;
11334;SDS011;5722;42.620;23.374;2024-01-30T08:20:57;6.17;;;3.30;;
11334;SDS011;5722;42.620;23.374;2024-01-30T08:23:25;4.20;;;3.30;;
11334;SDS011;5722;42.620;23.374;2024-01-30T08:25:55;15.33;;;3.17;;
11334;SDS011;5722;42.620;23.374;2024-01-30T08:28:24;5.03;;;3.00;;
11334;SDS011;5722;42.620;23.374;2024-01-30T08:30:54;4.47;;;3.23;;
11334;SDS011;5722;42.620;23.374;2024-01-30T08:33:26;4.10;;;3.27;;
11334;SDS011;5722;42.620;23.374;2024-01-30T08:35:53;4.33;;;3.30;;
11334;SDS011;5722;42.620;23.374;2024-01-30T08:38:20;9.43;;;3.00;;
11334;SDS011;5722;42.620;23.374;2024-01-30T08:40:48;3.77;;;3.17;;
11334;SDS011;5722;42.620;23.374;2024-01-30T08:43:17;4.90;;;3.40;;
11334;SDS011;5722;42.620;23.374;2024-01-30T08:45:44;5.83;;;3.20;;
11334;SDS011;5722;42.620;23.374;2024-01-30T08:48:12;5.50;;;3.13;;
11334;SDS011;5722;42.620;23.374;2024-01-30T08:50:40;3.60;;;2.90;;
11334;SDS011;5722;42.620;23.374;2024-01-30T08:53:07;3.53;;;3.07;;
11334;SDS011;5722;42.620;23.374;2024-01-30T08:55:35;3.30;;;2.70;;
11334;SDS011;5722;42.620;23.374;2024-01-30T08:58:06;4.40;;;3.27;;
11334;SDS011;5722;42.620;23.374;2024-01-30T09:00:37;16.73;;;4.63;;
11334;SDS011;5722;42.620;23.374;2024-01-30T09:03:06;4.80;;;3.33;;
11334;SDS011;5722;42.620;23.374;2024-01-30T09:05:34;3.83;;;2.90;;
11334;SDS011;5722;42.620;23.374;2024-01-30T09:08:03;3.70;;;3.23;;
11334;SDS011;5722;42.620;23.374;2024-01-30T09:10:30;3.10;;;2.70;;
11334;SDS011;5722;42.620;23.374;2024-01-30T09:12:58;4.20;;;3.00;;
11334;SDS011;5722;42.620;23.374;2024-01-30T09:15:26;4.37;;;3.10;;
11334;SDS011;5722;42.620;23.374;2024-01-30T09:17:55;4.50;;;2.93;;
11334;SDS011;5722;42.620;23.374;2024-01-30T09:20:24;4.47;;;3.30;;
11334;SDS011;5722;42.620;23.374;2024-01-30T09:22:53;3.83;;;3.10;;
11334;SDS011;5722;42.620;23.374;2024-01-30T09:25:29;4.67;;;3.17;;
11334;SDS011;5722;42.620;23.374;2024-01-30T09:27:56;4.40;;;3.40;;
11334;SDS011;5722;42.620;23.374;2024-01-30T09:30:26;4.23;;;3.37;;
11334;SDS011;5722;42.620;23.374;2024-01-30T09:32:55;6.07;;;3.90;;
11334;SDS011;5722;42.620;23.374;2024-01-30T09:35:24;4.60;;;3.27;;
11334;SDS011;5722;42.620;23.374;2024-01-30T09:37:53;4.27;;;3.27;;
11334;SDS011;5722;42.620;23.374;2024-01-30T09:40:20;3.70;;;3.13;;
11334;SDS011;5722;42.620;23.374;2024-01-30T09:42:49;4.60;;;3.50;;
11334;SDS011;5722;42.620;23.374;2024-01-30T09:45:17;8.10;;;3.60;;
11334;SDS011;5722;42.620;23.374;2024-01-30T09:47:45;14.57;;;3.80;;
11334;SDS011;5722;42.620;23.374;2024-01-30T09:50:14;6.60;;;3.10;;
11334;SDS011;5722;42.620;23.374;2024-01-30T09:52:43;4.60;;;3.13;;
11334;SDS011;5722;42.620;23.374;2024-01-30T09:55:11;8.93;;;3.47;;
11334;SDS011;5722;42.620;23.374;2024-01-30T09:57:42;9.87;;;3.47;;
11334;SDS011;5722;42.620;23.374;2024-01-30T10:00:13;4.70;;;3.73;;
11334;SDS011;5722;42.620;23.374;2024-01-30T10:02:41;4.43;;;3.63;;
11334;SDS011;5722;42.620;23.374;2024-01-30T10:05:09;9.47;;;4.33;;
11334;SDS011;5722;42.620;23.374;2024-01-30T10:07:49;7.73;;;4.03;;
11334;SDS011;5722;42.620;23.374;2024-01-30T10:10:19;5.43;;;3.70;;
11334;SDS011;5722;42.620;23.374;2024-01-30T10:12:48;4.70;;;3.70;;
11334;SDS011;5722;42.620;23.374;2024-01-30T10:15:19;6.27;;;3.70;;
11334;SDS011;5722;42.620;23.374;2024-01-30T10:17:48;4.47;;;3.70;;
11334;SDS011;5722;42.620;23.374;2024-01-30T10:20:17;6.27;;;4.07;;
11334;SDS011;5722;42.620;23.374;2024-01-30T10:22:46;6.00;;;4.17;;
11334;SDS011;5722;42.620;23.374;2024-01-30T10:25:14;6.50;;;4.67;;
11334;SDS011;5722;42.620;23.374;2024-01-30T10:27:42;8.80;;;4.10;;
11334;SDS011;5722;42.620;23.374;2024-01-30T10:30:09;5.40;;;3.97;;
11334;SDS011;5722;42.620;23.374;2024-01-30T10:32:38;5.67;;;4.03;;
11334;SDS011;5722;42.620;23.374;2024-01-30T10:35:05;5.67;;;4.20;;
11334;SDS011;5722;42.620;23.374;2024-01-30T10:37:34;6.67;;;3.70;;
11334;SDS011;5722;42.620;23.374;2024-01-30T10:40:03;5.90;;;4.43;;
11334;SDS011;5722;42.620;23.374;2024-01-30T10:42:32;5.73;;;3.93;;
11334;SDS011;5722;42.620;23.374;2024-01-30T10:45:06;5.70;;;4.03;;
11334;SDS011;5722;42.620;23.374;2024-01-30T10:47:35;5.80;;;3.70;;
11334;SDS011;5722;42.620;23.374;2024-01-30T10:50:07;6.20;;;3.70;;
11334;SDS011;5722;42.620;23.374;2024-01-30T10:52:37;5.30;;;3.73;;
11334;SDS011;5722;42.620;23.374;2024-01-30T10:55:07;5.00;;;3.53;;
11334;SDS011;5722;42.620;23.374;2024-01-30T10:57:36;5.83;;;3.97;;
11334;SDS011;5722;42.620;23.374;2024-01-30T11:00:04;7.30;;;4.03;;
11334;SDS011;5722;42.620;23.374;2024-01-30T11:02:36;3.93;;;3.13;;
11334;SDS011;5722;42.620;23.374;2024-01-30T11:08:10;11.03;;;3.30;;
11334;SDS011;5722;42.620;23.374;2024-01-30T11:13:29;6.17;;;3.50;;
11334;SDS011;5722;42.620;23.374;2024-01-30T11:16:00;6.63;;;3.30;;
11334;SDS011;5722;42.620;23.374;2024-01-30T11:18:28;4.20;;;3.23;;
11334;SDS011;5722;42.620;23.374;2024-01-30T11:20:59;3.60;;;3.20;;
11334;SDS011;5722;42.620;23.374;2024-01-30T11:23:33;4.50;;;3.80;;
11334;SDS011;5722;42.620;23.374;2024-01-30T11:26:04;5.33;;;3.67;;
11334;SDS011;5722;42.620;23.374;2024-01-30T11:28:32;5.13;;;3.50;;
11334;SDS011;5722;42.620;23.374;2024-01-30T11:31:04;4.47;;;3.13;;
11334;SDS011;5722;42.620;23.374;2024-01-30T11:33:52;3.90;;;3.23;;
11334;SDS011;5722;42.620;23.374;2024-01-30T11:36:25;4.77;;;2.83;;
11334;SDS011;5722;42.620;23.374;2024-01-30T11:38:53;5.37;;;3.17;;
11334;SDS011;5722;42.620;23.374;2024-01-30T11:41:21;4.37;;;3.20;;
11334;SDS011;5722;42.620;23.374;2024-01-30T11:43:53;7.27;;;3.57;;
11334;SDS011;5722;42.620;23.374;2024-01-30T11:46:24;6.33;;;3.40;;
11334;SDS011;5722;42.620;23.374;2024-01-30T11:48:59;6.97;;;3.60;;
11334;SDS011;5722;42.620;23.374;2024-01-30T11:51:29;4.77;;;3.70;;
11334;SDS011;5722;42.620;23.374;2024-01-30T11:53:57;5.40;;;4.00;;
11334;SDS011;5722;42.620;23.374;2024-01-30T11:56:26;5.60;;;3.70;;
11334;SDS011;5722;42.620;23.374;2024-01-30T11:58:57;6.40;;;3.40;;
11334;SDS011;5722;42.620;23.374;2024-01-30T12:01:25;5.50;;;3.70;;
11334;SDS011;5722;42.620;23.374;2024-01-30T12:03:54;3.87;;;3.30;;
11334;SDS011;5722;42.620;23.374;2024-01-30T12:06:22;4.83;;;3.60;;
11334;SDS011;5722;42.620;23.374;2024-01-30T12:09:04;5.37;;;3.60;;
11334;SDS011;5722;42.620;23.374;2024-01-30T12:11:35;5.37;;;3.67;;
11334;SDS011;5722;42.620;23.374;2024-01-30T12:14:11;8.17;;;3.63;;
11334;SDS011;5722;42.620;23.374;2024-01-30T12:16:39;4.33;;;3.10;;
11334;SDS011;5722;42.620;23.374;2024-01-30T12:19:07;4.57;;;3.20;;
11334;SDS011;5722;42.620;23.374;2024-01-30T12:21:36;5.63;;;3.60;;
11334;SDS011;5722;42.620;23.374;2024-01-30T12:24:07;4.67;;;3.17;;
11334;SDS011;5722;42.620;23.374;2024-01-30T12:26:38;5.77;;;3.20;;
11334;SDS011;5722;42.620;23.374;2024-01-30T12:29:07;4.87;;;3.20;;
11334;SDS011;5722;42.620;23.374;2024-01-30T12:31:35;5.23;;;3.60;;
11334;SDS011;5722;42.620;23.374;2024-01-30T12:34:03;5.37;;;3.60;;
11334;SDS011;5722;42.620;23.374;2024-01-30T12:36:31;4.47;;;3.37;;
11334;SDS011;5722;42.620;23.374;2024-01-30T12:39:01;5.53;;;3.83;;
11334;SDS011;5722;42.620;23.374;2024-01-30T12:41:36;5.50;;;3.33;;
11334;SDS011;5722;42.620;23.374;2024-01-30T12:44:06;4.60;;;3.37;;
11334;SDS011;5722;42.620;23.374;2024-01-30T12:46:36;23.77;;;4.80;;
11334;SDS011;5722;42.620;23.374;2024-01-30T12:49:06;5.00;;;3.73;;
11334;SDS011;5722;42.620;23.374;2024-01-30T12:51:34;5.33;;;3.87;;
11334;SDS011;5722;42.620;23.374;2024-01-30T12:54:05;10.50;;;4.27;;
11334;SDS011;5722;42.620;23.374;2024-01-30T12:56:41;12.73;;;4.50;;
11334;SDS011;5722;42.620;23.374;2024-01-30T12:59:09;6.93;;;4.27;;
11334;SDS011;5722;42.620;23.374;2024-01-30T13:01:45;5.47;;;3.80;;
11334;SDS011;5722;42.620;23.374;2024-01-30T13:04:13;6.23;;;3.47;;
11334;SDS011;5722;42.620;23.374;2024-01-30T13:06:41;6.50;;;3.73;;
11334;SDS011;5722;42.620;23.374;2024-01-30T13:09:12;6.20;;;3.53;;
11334;SDS011;5722;42.620;23.374;2024-01-30T13:11:42;4.63;;;3.63;;
11334;SDS011;5722;42.620;23.374;2024-01-30T13:14:12;5.47;;;3.43;;
11334;SDS011;5722;42.620;23.374;2024-01-30T13:16:39;6.50;;;3.67;;
11334;SDS011;5722;42.620;23.374;2024-01-30T13:19:07;6.63;;;3.97;;
11334;SDS011;5722;42.620;23.374;2024-01-30T13:21:35;3.80;;;3.40;;
11334;SDS011;5722;42.620;23.374;2024-01-30T13:24:02;5.27;;;3.57;;
11334;SDS011;5722;42.620;23.374;2024-01-30T13:26:31;15.07;;;4.70;;
11334;SDS011;5722;42.620;23.374;2024-01-30T13:29:08;8.17;;;3.67;;
11334;SDS011;5722;42.620;23.374;2024-01-30T13:31:42;5.60;;;3.80;;
11334;SDS011;5722;42.620;23.374;2024-01-30T13:34:12;5.30;;;3.60;;
11334;SDS011;5722;42.620;23.374;2024-01-30T13:36:43;8.00;;;3.87;;
11334;SDS011;5722;42.620;23.374;2024-01-30T13:39:15;9.70;;;3.93;;
11334;SDS011;5722;42.620;23.374;2024-01-30T13:41:43;7.97;;;3.97;;
11334;SDS011;5722;42.620;23.374;2024-01-30T13:44:13;4.60;;;3.73;;
11334;SDS011;5722;42.620;23.374;2024-01-30T13:46:41;5.70;;;3.90;;
11334;SDS011;5722;42.620;23.374;2024-01-30T13:49:18;6.43;;;4.10;;
11334;SDS011;5722;42.620;23.374;2024-01-30T13:54:34;5.70;;;3.80;;
11334;SDS011;5722;42.620;23.374;2024-01-30T13:57:02;6.07;;;3.33;;
11334;SDS011;5722;42.620;23.374;2024-01-30T13:59:33;6.20;;;3.60;;
11334;SDS011;5722;42.620;23.374;2024-01-30T14:02:03;6.40;;;3.50;;
11334;SDS011;5722;42.620;23.374;2024-01-30T14:04:33;5.33;;;3.77;;
11334;SDS011;5722;42.620;23.374;2024-01-30T14:07:04;8.33;;;4.37;;
11334;SDS011;5722;42.620;23.374;2024-01-30T14:09:32;10.13;;;4.53;;
11334;SDS011;5722;42.620;23.374;2024-01-30T14:12:02;6.40;;;4.00;;
11334;SDS011;5722;42.620;23.374;2024-01-30T14:14:30;6.57;;;4.23;;
11334;SDS011;5722;42.620;23.374;2024-01-30T14:17:02;5.70;;;4.37;;
11334;SDS011;5722;42.620;23.374;2024-01-30T14:19:33;9.47;;;4.00;;
11334;SDS011;5722;42.620;23.374;2024-01-30T14:22:01;9.13;;;4.30;;
11334;SDS011;5722;42.620;23.374;2024-01-30T14:24:32;5.47;;;3.90;;
11334;SDS011;5722;42.620;23.374;2024-01-30T14:27:10;5.07;;;3.93;;
11334;SDS011;5722;42.620;23.374;2024-01-30T14:29:42;7.47;;;3.67;;
11334;SDS011;5722;42.620;23.374;2024-01-30T14:32:15;7.60;;;4.33;;
11334;SDS011;5722;42.620;23.374;2024-01-30T14:34:43;5.83;;;4.03;;
11334;SDS011;5722;42.620;23.374;2024-01-30T14:37:16;6.70;;;4.13;;
11334;SDS011;5722;42.620;23.374;2024-01-30T14:42:19;5.23;;;3.90;;
11334;SDS011;5722;42.620;23.374;2024-01-30T14:44:51;5.90;;;4.00;;
11334;SDS011;5722;42.620;23.374;2024-01-30T14:47:29;11.63;;;4.50;;
11334;SDS011;5722;42.620;23.374;2024-01-30T14:50:12;6.83;;;4.00;;
11334;SDS011;5722;42.620;23.374;2024-01-30T14:52:42;5.97;;;4.03;;
11334;SDS011;5722;42.620;23.374;2024-01-30T14:55:13;7.03;;;3.90;;
11334;SDS011;5722;42.620;23.374;2024-01-30T14:57:47;7.83;;;4.20;;
11334;SDS011;5722;42.620;23.374;2024-01-30T15:00:15;9.77;;;4.33;;
11334;SDS011;5722;42.620;23.374;2024-01-30T15:02:49;6.90;;;4.17;;
11334;SDS011;5722;42.620;23.374;2024-01-30T15:05:18;22.80;;;4.80;;
11334;SDS011;5722;42.620;23.374;2024-01-30T15:07:45;12.30;;;4.37;;
11334;SDS011;5722;42.620;23.374;2024-01-30T15:10:13;6.53;;;4.50;;
11334;SDS011;5722;42.620;23.374;2024-01-30T15:12:40;9.97;;;4.97;;
11334;SDS011;5722;42.620;23.374;2024-01-30T15:15:08;15.00;;;5.13;;
11334;SDS011;5722;42.620;23.374;2024-01-30T15:17:39;11.80;;;4.30;;
11334;SDS011;5722;42.620;23.374;2024-01-30T15:20:09;15.17;;;4.53;;
11334;SDS011;5722;42.620;23.374;2024-01-30T15:22:36;9.63;;;5.27;;
11334;SDS011;5722;42.620;23.374;2024-01-30T15:25:08;17.43;;;5.27;;
11334;SDS011;5722;42.620;23.374;2024-01-30T15:27:38;13.40;;;4.53;;
11334;SDS011;5722;42.620;23.374;2024-01-30T15:30:06;6.83;;;4.23;;
11334;SDS011;5722;42.620;23.374;2024-01-30T15:32:33;7.77;;;4.50;;
11334;SDS011;5722;42.620;23.374;2024-01-30T15:35:00;6.53;;;4.73;;
11334;SDS011;5722;42.620;23.374;2024-01-30T15:37:31;8.90;;;4.33;;
11334;SDS011;5722;42.620;23.374;2024-01-30T15:39:58;8.97;;;4.20;;